Time;durP1;ratioP1;P1;durP2;ratioP2;P2;SDS_P1;SDS_P2;PMS_P1;PMS_P2;Temp;Humidity;BMP_temperature;BMP_pressure;BME280_temperature;BME280_humidity;BME280_pressure;Samples;Min_cycle;Max_cycle;Signal;HPM_P1;HPM_P2
2024/04/09 00:01:02;;;;;;;1.60;1.10;;;;;;;;;;5436765;25;56542;-75
2024/04/09 00:03:29;;;;;;;2.67;1.88;;;;;;;;;;5438712;25;56544;-75
2024/04/09 00:05:54;;;;;;;3.17;1.88;;;;;;;;;;5439071;25;57511;-76
2024/04/09 00:08:21;;;;;;;3.10;1.80;;;;;;;;;;5437941;25;57987;-76
2024/04/09 00:10:47;;;;;;;2.03;1.30;;;;;;;;;;5436975;25;56636;-74
2024/04/09 00:13:12;;;;;;;2.28;1.20;;;;;;;;;;5434964;25;57287;-76
2024/04/09 00:15:40;;;;;;;4.30;1.87;;;;;;;;;;5438203;25;56704;-78
2024/04/09 00:18:11;;;;;;;3.03;1.93;;;;;;;;;;5432784;25;57275;-76
2024/04/09 00:20:36;;;;;;;1.20;1.10;;;;;;;;;;5438007;25;57887;-76
2024/04/09 00:23:03;;;;;;;3.55;1.60;;;;;;;;;;5435789;25;56066;-77
2024/04/09 00:25:29;;;;;;;5.32;1.30;;;;;;;;;;5438056;25;57409;-74
2024/04/09 00:27:54;;;;;;;2.65;1.30;;;;;;;;;;5438279;25;57659;-78
2024/04/09 00:30:21;;;;;;;3.47;1.40;;;;;;;;;;5437754;25;56506;-76
2024/04/09 00:32:46;;;;;;;1.67;1.52;;;;;;;;;;5435538;25;57528;-76
2024/04/09 00:35:11;;;;;;;4.73;1.40;;;;;;;;;;5439228;25;57650;-76
2024/04/09 00:37:39;;;;;;;3.27;1.30;;;;;;;;;;5438866;25;57248;-77
2024/04/09 00:40:09;;;;;;;1.93;1.23;;;;;;;;;;5436824;25;57723;-76
2024/04/09 00:42:34;;;;;;;3.10;1.00;;;;;;;;;;5437157;25;56822;-76
2024/04/09 00:45:00;;;;;;;4.10;1.42;;;;;;;;;;5437638;25;57160;-76
2024/04/09 00:47:25;;;;;;;1.50;1.15;;;;;;;;;;5437764;25;57649;-76
2024/04/09 00:49:51;;;;;;;2.30;1.30;;;;;;;;;;5437307;25;56643;-76
2024/04/09 00:52:16;;;;;;;1.17;1.10;;;;;;;;;;5437519;25;58465;-76
2024/04/09 00:54:44;;;;;;;2.13;1.30;;;;;;;;;;5434798;25;56870;-76
2024/04/09 00:57:10;;;;;;;1.33;1.13;;;;;;;;;;5435648;25;56648;-76
2024/04/09 00:59:35;;;;;;;2.25;1.30;;;;;;;;;;5434520;25;58745;-76
2024/04/09 01:02:01;;;;;;;3.65;1.45;;;;;;;;;;5440118;25;56812;-75
2024/04/09 01:04:27;;;;;;;1.75;1.50;;;;;;;;;;5442041;25;57101;-75
2024/04/09 01:06:52;;;;;;;1.77;1.23;;;;;;;;;;5437687;25;58590;-75
2024/04/09 01:09:17;;;;;;;1.23;1.00;;;;;;;;;;5439397;25;56778;-75
2024/04/09 01:11:42;;;;;;;3.67;1.23;;;;;;;;;;5441366;25;57135;-76
2024/04/09 01:14:08;;;;;;;2.27;1.87;;;;;;;;;;5438888;25;57629;-76
2024/04/09 01:16:33;;;;;;;1.37;1.20;;;;;;;;;;5441562;25;56397;-75
2024/04/09 01:18:58;;;;;;;2.03;1.05;;;;;;;;;;5438082;25;56731;-76
2024/04/09 01:21:23;;;;;;;2.23;1.13;;;;;;;;;;5441221;25;56701;-76
2024/04/09 01:23:48;;;;;;;2.77;1.50;;;;;;;;;;5438691;25;58205;-76
2024/04/09 01:26:14;;;;;;;1.73;1.20;;;;;;;;;;5439067;25;58589;-76
2024/04/09 01:28:39;;;;;;;1.37;1.27;;;;;;;;;;5439199;25;56370;-75
2024/04/09 01:31:04;;;;;;;1.48;1.02;;;;;;;;;;5440735;25;57170;-75
2024/04/09 01:33:30;;;;;;;1.63;1.20;;;;;;;;;;5440098;25;58890;-76
2024/04/09 01:35:55;;;;;;;2.55;1.17;;;;;;;;;;5436935;25;56784;-76
2024/04/09 01:38:21;;;;;;;1.57;1.00;;;;;;;;;;5442346;25;57175;-76
2024/04/09 01:40:49;;;;;;;4.00;1.50;;;;;;;;;;5440176;25;56817;-75
2024/04/09 01:43:15;;;;;;;2.45;1.33;;;;;;;;;;5439636;25;56823;-75
2024/04/09 01:45:40;;;;;;;1.53;1.40;;;;;;;;;;5438260;25;57988;-72
2024/04/09 01:48:06;;;;;;;2.45;1.58;;;;;;;;;;5441367;25;56351;-71
2024/04/09 01:50:35;;;;;;;1.67;1.27;;;;;;;;;;5440916;25;57701;-71
2024/04/09 01:53:00;;;;;;;2.90;1.25;;;;;;;;;;5493786;25;59891;-72
2024/04/09 01:55:25;;;;;;;1.77;1.38;;;;;;;;;;5441260;25;56383;-71
2024/04/09 01:57:51;;;;;;;1.75;1.55;;;;;;;;;;5439742;25;57456;-73
2024/04/09 02:00:20;;;;;;;2.35;1.45;;;;;;;;;;5437987;25;57732;-72
2024/04/09 02:02:54;;;;;;;1.38;1.27;;;;;;;;;;5439509;25;57271;-71
2024/04/09 02:05:22;;;;;;;1.50;1.40;;;;;;;;;;5439948;25;57750;-71
2024/04/09 02:07:48;;;;;;;1.55;1.00;;;;;;;;;;5441914;25;57042;-71
2024/04/09 02:10:13;;;;;;;1.77;1.67;;;;;;;;;;5440072;25;57255;-72
2024/04/09 02:12:39;;;;;;;2.47;2.30;;;;;;;;;;5439376;25;56891;-71
2024/04/09 02:15:04;;;;;;;1.20;1.10;;;;;;;;;;5439658;25;56400;-71
2024/04/09 02:17:30;;;;;;;1.98;1.27;;;;;;;;;;5441809;25;57210;-71
2024/04/09 02:19:55;;;;;;;1.13;1.00;;;;;;;;;;5438651;25;58869;-71
2024/04/09 02:22:20;;;;;;;1.47;1.17;;;;;;;;;;5441513;25;56708;-71
2024/04/09 02:24:46;;;;;;;1.65;1.55;;;;;;;;;;5437183;25;59621;-71
2024/04/09 02:27:12;;;;;;;1.20;1.10;;;;;;;;;;5439215;25;56755;-71
2024/04/09 02:29:37;;;;;;;1.10;1.00;;;;;;;;;;5441153;25;58238;-71
2024/04/09 02:32:02;;;;;;;1.63;1.53;;;;;;;;;;5441032;25;56871;-71
2024/04/09 02:34:27;;;;;;;0.80;0.80;;;;;;;;;;5441199;25;56157;-71
2024/04/09 02:36:52;;;;;;;1.77;1.10;;;;;;;;;;5441116;25;58161;-71
2024/04/09 02:39:18;;;;;;;3.22;1.30;;;;;;;;;;5436364;25;57771;-71
2024/04/09 02:41:43;;;;;;;1.83;0.85;;;;;;;;;;5440270;25;56451;-71
2024/04/09 02:44:08;;;;;;;1.43;1.13;;;;;;;;;;5437950;25;56466;-72
2024/04/09 02:46:34;;;;;;;1.00;0.90;;;;;;;;;;5441594;25;56520;-72
2024/04/09 02:48:59;;;;;;;1.00;0.90;;;;;;;;;;5436973;25;56402;-72
2024/04/09 02:51:25;;;;;;;1.20;0.98;;;;;;;;;;5439807;25;56604;-71
2024/04/09 02:53:50;;;;;;;2.30;0.98;;;;;;;;;;5438586;25;56588;-73
2024/04/09 02:56:15;;;;;;;2.67;1.73;;;;;;;;;;5440764;25;57284;-72
2024/04/09 02:58:41;;;;;;;1.50;1.33;;;;;;;;;;5438250;25;57734;-73
2024/04/09 03:01:07;;;;;;;1.47;1.37;;;;;;;;;;5437711;25;56455;-74
2024/04/09 03:03:32;;;;;;;1.27;1.10;;;;;;;;;;5437781;25;57625;-73
2024/04/09 03:06:04;;;;;;;1.37;0.90;;;;;;;;;;5441175;25;58115;-73
2024/04/09 03:08:29;;;;;;;1.23;1.13;;;;;;;;;;5437950;25;57417;-73
2024/04/09 03:10:55;;;;;;;1.30;1.20;;;;;;;;;;5439780;25;57858;-72
2024/04/09 03:13:20;;;;;;;2.15;1.33;;;;;;;;;;5440268;25;56186;-74
2024/04/09 03:15:46;;;;;;;1.77;1.10;;;;;;;;;;5437084;25;56671;-73
2024/04/09 03:18:11;;;;;;;1.17;1.00;;;;;;;;;;5435110;25;56638;-73
2024/04/09 03:20:36;;;;;;;1.20;1.10;;;;;;;;;;5435499;25;56433;-72
2024/04/09 03:23:01;;;;;;;4.55;1.95;;;;;;;;;;5434939;25;56584;-73
2024/04/09 03:25:26;;;;;;;1.97;1.47;;;;;;;;;;5440213;25;57749;-73
2024/04/09 03:27:51;;;;;;;1.77;1.10;;;;;;;;;;5437537;25;57134;-72
2024/04/09 03:30:17;;;;;;;0.95;0.95;;;;;;;;;;5439801;25;58725;-72
2024/04/09 03:32:42;;;;;;;1.53;1.13;;;;;;;;;;5438992;25;56655;-73
2024/04/09 03:35:07;;;;;;;1.23;0.90;;;;;;;;;;5440122;25;57321;-73
2024/04/09 03:37:33;;;;;;;1.15;1.05;;;;;;;;;;5439169;25;57671;-72
2024/04/09 03:39:58;;;;;;;0.88;0.88;;;;;;;;;;5438762;25;56739;-73
2024/04/09 03:42:23;;;;;;;1.10;1.10;;;;;;;;;;5435622;25;57199;-72
2024/04/09 03:44:49;;;;;;;1.33;1.07;;;;;;;;;;5438281;25;57881;-73
2024/04/09 03:47:14;;;;;;;2.00;1.10;;;;;;;;;;5440146;25;56723;-73
2024/04/09 03:49:39;;;;;;;1.40;1.30;;;;;;;;;;5437392;25;58693;-73
2024/04/09 03:52:04;;;;;;;1.15;1.00;;;;;;;;;;5437810;25;56723;-72
2024/04/09 03:54:30;;;;;;;0.90;0.75;;;;;;;;;;5437755;25;56465;-72
2024/04/09 03:56:55;;;;;;;1.20;1.10;;;;;;;;;;5436604;25;57747;-72
2024/04/09 03:59:21;;;;;;;0.80;0.80;;;;;;;;;;5436897;25;56762;-72
2024/04/09 04:01:46;;;;;;;1.40;1.30;;;;;;;;;;5437113;25;57293;-73
2024/04/09 04:04:13;;;;;;;2.05;1.30;;;;;;;;;;5438854;25;56390;-76
2024/04/09 04:06:38;;;;;;;0.80;0.80;;;;;;;;;;5438987;25;56854;-75
2024/04/09 04:09:03;;;;;;;0.98;0.80;;;;;;;;;;5440131;25;57179;-76
2024/04/09 04:11:31;;;;;;;0.82;0.80;;;;;;;;;;5439903;25;57676;-76
2024/04/09 04:13:56;;;;;;;1.00;0.90;;;;;;;;;;5438681;25;57999;-75
2024/04/09 04:16:22;;;;;;;0.90;0.90;;;;;;;;;;5439045;25;56962;-76
2024/04/09 04:18:47;;;;;;;2.40;1.00;;;;;;;;;;5439298;25;56673;-78
2024/04/09 04:21:13;;;;;;;1.50;1.20;;;;;;;;;;5439693;25;57156;-76
2024/04/09 04:23:39;;;;;;;1.27;1.05;;;;;;;;;;5437830;25;57692;-76
2024/04/09 04:26:05;;;;;;;1.48;1.20;;;;;;;;;;5439970;25;56382;-77
2024/04/09 04:28:30;;;;;;;1.27;1.17;;;;;;;;;;5437411;25;56073;-77
2024/04/09 04:30:56;;;;;;;1.15;1.13;;;;;;;;;;5439306;25;56635;-76
2024/04/09 04:33:21;;;;;;;0.90;0.90;;;;;;;;;;5435677;25;57986;-77
2024/04/09 04:35:46;;;;;;;0.80;0.80;;;;;;;;;;5438295;25;57555;-75
2024/04/09 04:38:12;;;;;;;2.60;1.17;;;;;;;;;;5437926;25;56051;-76
2024/04/09 04:40:37;;;;;;;2.70;1.10;;;;;;;;;;5435517;25;57169;-77
2024/04/09 04:43:03;;;;;;;0.82;0.70;;;;;;;;;;5437086;25;57536;-78
2024/04/09 04:45:31;;;;;;;1.55;1.23;;;;;;;;;;5440731;25;56772;-76
2024/04/09 04:47:56;;;;;;;1.10;1.08;;;;;;;;;;5429285;25;56837;-72
2024/04/09 04:50:21;;;;;;;1.55;1.17;;;;;;;;;;5439010;25;57834;-72
2024/04/09 04:52:47;;;;;;;2.10;1.17;;;;;;;;;;5435157;25;56749;-72
2024/04/09 04:55:12;;;;;;;0.93;0.93;;;;;;;;;;5424259;25;57603;-72
2024/04/09 04:57:37;;;;;;;0.95;0.73;;;;;;;;;;5436443;25;56495;-73
2024/04/09 05:00:08;;;;;;;2.28;0.85;;;;;;;;;;5437229;25;56539;-72
2024/04/09 05:02:34;;;;;;;2.50;1.65;;;;;;;;;;5428035;25;56828;-73
2024/04/09 05:05:00;;;;;;;4.20;1.17;;;;;;;;;;5438658;25;56745;-72
2024/04/09 05:07:25;;;;;;;4.82;2.40;;;;;;;;;;5424662;25;57161;-73
2024/04/09 05:09:50;;;;;;;3.93;3.00;;;;;;;;;;5427835;25;57660;-73
2024/04/09 05:12:15;;;;;;;7.10;2.45;;;;;;;;;;5428381;25;56717;-73
2024/04/09 05:14:40;;;;;;;3.67;2.40;;;;;;;;;;5432893;25;57279;-73
2024/04/09 05:17:05;;;;;;;3.73;1.77;;;;;;;;;;5428267;25;56516;-73
2024/04/09 05:19:32;;;;;;;3.38;2.15;;;;;;;;;;5427892;25;57063;-73
2024/04/09 05:21:58;;;;;;;3.25;2.63;;;;;;;;;;5430712;25;58012;-71
2024/04/09 05:24:23;;;;;;;4.07;2.17;;;;;;;;;;5428186;25;56458;-71
2024/04/09 05:26:48;;;;;;;3.53;2.50;;;;;;;;;;5429116;25;57134;-71
2024/04/09 05:29:13;;;;;;;5.88;2.80;;;;;;;;;;5432967;25;59400;-71
2024/04/09 05:31:39;;;;;;;2.22;1.83;;;;;;;;;;5424776;25;56463;-72
2024/04/09 05:34:04;;;;;;;2.90;1.97;;;;;;;;;;5436546;25;58283;-71
2024/04/09 05:36:31;;;;;;;2.30;2.10;;;;;;;;;;5424728;25;56687;-70
2024/04/09 05:38:56;;;;;;;8.07;3.13;;;;;;;;;;5424311;25;57675;-70
2024/04/09 05:41:21;;;;;;;10.00;2.20;;;;;;;;;;5433318;25;56650;-70
2024/04/09 05:43:47;;;;;;;1.90;1.80;;;;;;;;;;5429121;25;56464;-70
2024/04/09 05:46:12;;;;;;;1.90;1.73;;;;;;;;;;5427599;25;57242;-70
2024/04/09 05:48:37;;;;;;;2.00;1.90;;;;;;;;;;5431149;25;57640;-70
2024/04/09 05:51:03;;;;;;;2.00;1.63;;;;;;;;;;5432415;25;56459;-70
2024/04/09 05:53:28;;;;;;;2.60;1.60;;;;;;;;;;5437237;25;58067;-71
2024/04/09 05:55:54;;;;;;;1.77;1.67;;;;;;;;;;5435833;25;56560;-71
2024/04/09 05:58:20;;;;;;;2.70;2.50;;;;;;;;;;5426404;25;57284;-70
2024/04/09 06:00:46;;;;;;;3.63;1.85;;;;;;;;;;5435566;25;57898;-70
2024/04/09 06:03:12;;;;;;;3.20;1.40;;;;;;;;;;5439312;25;56657;-70
2024/04/09 06:05:38;;;;;;;1.50;1.40;;;;;;;;;;5434852;25;56500;-71
2024/04/09 06:08:03;;;;;;;1.67;1.58;;;;;;;;;;5435896;25;58604;-70
2024/04/09 06:10:28;;;;;;;2.67;1.60;;;;;;;;;;5437212;25;56483;-70
2024/04/09 06:12:53;;;;;;;1.20;1.08;;;;;;;;;;5428705;25;57155;-71
2024/04/09 06:15:18;;;;;;;2.43;1.70;;;;;;;;;;5433580;25;57882;-70
2024/04/09 06:17:44;;;;;;;1.47;1.37;;;;;;;;;;5435754;25;56400;-71
2024/04/09 06:20:10;;;;;;;1.02;0.93;;;;;;;;;;5429293;25;57671;-70
2024/04/09 06:22:35;;;;;;;1.27;1.20;;;;;;;;;;5433941;25;56621;-71
2024/04/09 06:25:00;;;;;;;3.42;1.67;;;;;;;;;;5433161;25;57142;-72
2024/04/09 06:27:25;;;;;;;1.88;1.65;;;;;;;;;;5427833;25;57565;-72
2024/04/09 06:29:51;;;;;;;1.83;1.03;;;;;;;;;;5431376;25;56477;-72
2024/04/09 06:32:16;;;;;;;2.07;1.90;;;;;;;;;;5428645;25;57283;-72
2024/04/09 06:34:42;;;;;;;2.17;1.13;;;;;;;;;;5434394;25;58650;-73
2024/04/09 06:37:07;;;;;;;1.33;1.10;;;;;;;;;;5428064;25;56510;-73
2024/04/09 06:39:32;;;;;;;1.77;1.43;;;;;;;;;;5433595;25;56366;-73
2024/04/09 06:41:59;;;;;;;1.90;1.30;;;;;;;;;;5436397;25;56371;-73
2024/04/09 06:44:24;;;;;;;1.30;1.20;;;;;;;;;;5436683;25;56350;-72
2024/04/09 06:46:50;;;;;;;1.52;1.20;;;;;;;;;;5429491;25;56657;-73
2024/04/09 06:49:15;;;;;;;1.77;1.17;;;;;;;;;;5441468;25;56572;-72
2024/04/09 06:51:40;;;;;;;1.30;0.93;;;;;;;;;;5430820;25;58395;-72
2024/04/09 06:54:05;;;;;;;2.53;1.05;;;;;;;;;;5423181;25;56566;-73
2024/04/09 06:56:30;;;;;;;1.23;0.98;;;;;;;;;;5437632;25;56515;-72
2024/04/09 06:58:56;;;;;;;2.37;1.00;;;;;;;;;;5429098;25;57132;-72
2024/04/09 07:01:21;;;;;;;1.23;1.15;;;;;;;;;;5429391;25;57830;-72
2024/04/09 07:03:46;;;;;;;1.47;1.20;;;;;;;;;;5435624;25;57310;-72
2024/04/09 07:06:11;;;;;;;1.75;1.65;;;;;;;;;;5436003;25;56453;-72
2024/04/09 07:08:37;;;;;;;2.58;1.20;;;;;;;;;;5428558;25;56730;-72
2024/04/09 07:11:02;;;;;;;2.13;1.57;;;;;;;;;;5433972;25;57217;-72
2024/04/09 07:13:28;;;;;;;4.63;1.42;;;;;;;;;;5435066;25;59643;-73
2024/04/09 07:15:53;;;;;;;1.37;1.20;;;;;;;;;;5433828;25;56592;-72
2024/04/09 07:18:18;;;;;;;0.93;0.90;;;;;;;;;;5431237;25;57858;-72
2024/04/09 07:20:44;;;;;;;1.90;1.23;;;;;;;;;;5430544;25;56649;-72
2024/04/09 07:23:09;;;;;;;1.33;0.98;;;;;;;;;;5439855;25;56417;-73
2024/04/09 07:25:34;;;;;;;1.05;0.80;;;;;;;;;;5428677;25;57770;-72
2024/04/09 07:27:59;;;;;;;2.00;0.93;;;;;;;;;;5429178;25;56617;-71
2024/04/09 07:30:24;;;;;;;1.77;1.05;;;;;;;;;;5427956;25;57367;-72
2024/04/09 07:32:49;;;;;;;1.35;0.57;;;;;;;;;;5429910;25;56738;-72
2024/04/09 07:35:14;;;;;;;0.73;0.70;;;;;;;;;;5438088;25;56458;-73
2024/04/09 07:37:41;;;;;;;3.43;0.87;;;;;;;;;;5437834;25;57321;-73
2024/04/09 07:40:07;;;;;;;1.08;0.98;;;;;;;;;;5427419;25;57712;-72
2024/04/09 07:42:32;;;;;;;3.22;0.93;;;;;;;;;;5428576;25;56440;-73
2024/04/09 07:44:57;;;;;;;2.65;1.05;;;;;;;;;;5435309;25;57880;-72
2024/04/09 07:47:23;;;;;;;3.00;1.15;;;;;;;;;;5433930;25;56467;-72
2024/04/09 07:49:48;;;;;;;1.10;0.75;;;;;;;;;;5434439;25;56163;-72
2024/04/09 07:52:13;;;;;;;1.07;0.97;;;;;;;;;;5435472;25;57757;-72
2024/04/09 07:54:38;;;;;;;0.80;0.75;;;;;;;;;;5439286;25;56517;-72
2024/04/09 07:57:03;;;;;;;0.70;0.70;;;;;;;;;;5432204;25;58099;-72
2024/04/09 07:59:29;;;;;;;1.20;1.10;;;;;;;;;;5429848;25;57779;-72
2024/04/09 08:01:54;;;;;;;0.77;0.77;;;;;;;;;;5430784;25;56718;-72
2024/04/09 08:04:19;;;;;;;1.63;0.82;;;;;;;;;;5431169;25;58297;-72
2024/04/09 08:06:45;;;;;;;1.48;1.13;;;;;;;;;;5433806;25;56591;-72
2024/04/09 08:09:11;;;;;;;1.95;1.00;;;;;;;;;;5434069;25;56370;-72
2024/04/09 08:11:41;;;;;;;1.85;1.50;;;;;;;;;;5420205;25;58703;-72
2024/04/09 08:14:06;;;;;;;7.97;1.48;;;;;;;;;;5434040;25;56403;-72
2024/04/09 08:16:32;;;;;;;1.08;0.90;;;;;;;;;;5436926;25;56553;-72
2024/04/09 08:18:57;;;;;;;0.77;0.70;;;;;;;;;;5431886;25;57498;-71
2024/04/09 08:21:22;;;;;;;1.73;1.00;;;;;;;;;;5427514;25;56531;-73
2024/04/09 08:23:47;;;;;;;0.80;0.80;;;;;;;;;;5432483;25;58409;-72
2024/04/09 08:26:12;;;;;;;0.57;0.57;;;;;;;;;;5432266;25;56323;-72
2024/04/09 08:28:37;;;;;;;1.40;1.00;;;;;;;;;;5431391;25;58597;-72
2024/04/09 08:31:05;;;;;;;1.15;1.05;;;;;;;;;;5433711;25;57609;-72
2024/04/09 08:33:31;;;;;;;1.15;0.98;;;;;;;;;;5438048;25;56560;-72
2024/04/09 08:35:56;;;;;;;0.85;0.85;;;;;;;;;;5433466;25;57083;-71
2024/04/09 08:38:22;;;;;;;1.25;0.63;;;;;;;;;;5435282;25;58022;-71
2024/04/09 08:40:47;;;;;;;0.75;0.70;;;;;;;;;;5435515;25;56498;-71
2024/04/09 08:43:15;;;;;;;1.30;0.90;;;;;;;;;;5437673;25;56563;-72
2024/04/09 08:45:41;;;;;;;1.80;1.02;;;;;;;;;;5431373;25;57831;-72
2024/04/09 08:48:07;;;;;;;1.77;1.25;;;;;;;;;;5432090;25;56451;-72
2024/04/09 08:50:32;;;;;;;1.15;0.93;;;;;;;;;;5433140;25;57569;-72
2024/04/09 08:52:58;;;;;;;1.10;1.00;;;;;;;;;;5429933;25;56485;-72
2024/04/09 08:55:23;;;;;;;1.95;1.30;;;;;;;;;;5427718;25;57447;-70
2024/04/09 08:57:48;;;;;;;1.10;1.00;;;;;;;;;;5433904;25;57838;-70
2024/04/09 09:00:16;;;;;;;0.73;0.73;;;;;;;;;;5437582;25;56570;-70
2024/04/09 09:02:41;;;;;;;0.98;0.90;;;;;;;;;;5433461;25;59254;-70
2024/04/09 09:05:15;;;;;;;0.87;0.87;;;;;;;;;;5434051;25;56764;-70
2024/04/09 09:07:40;;;;;;;1.02;0.68;;;;;;;;;;5428696;25;56825;-70
2024/04/09 09:10:06;;;;;;;0.80;0.80;;;;;;;;;;5433604;25;57027;-70
2024/04/09 09:12:31;;;;;;;0.70;0.70;;;;;;;;;;5428631;25;56626;-70
2024/04/09 09:15:00;;;;;;;0.73;0.70;;;;;;;;;;5437314;25;57232;-70
2024/04/09 09:17:26;;;;;;;2.05;0.60;;;;;;;;;;5425770;25;57583;-70
2024/04/09 09:19:58;;;;;;;0.77;0.77;;;;;;;;;;5432805;25;56651;-70
2024/04/09 09:22:23;;;;;;;0.50;0.50;;;;;;;;;;5435053;25;58320;-70
2024/04/09 09:24:56;;;;;;;0.95;0.82;;;;;;;;;;5431844;25;57758;-69
2024/04/09 09:27:21;;;;;;;1.27;1.08;;;;;;;;;;5430009;25;56448;-70
2024/04/09 09:29:53;;;;;;;2.95;1.00;;;;;;;;;;5432110;25;57354;-70
2024/04/09 09:32:19;;;;;;;0.93;0.93;;;;;;;;;;5435135;25;58659;-70
2024/04/09 09:34:46;;;;;;;1.20;0.80;;;;;;;;;;5431453;25;57211;-70
2024/04/09 09:37:11;;;;;;;1.03;0.80;;;;;;;;;;5425399;25;59318;-70
2024/04/09 09:39:40;;;;;;;1.10;1.02;;;;;;;;;;5434791;25;56671;-70
2024/04/09 09:42:11;;;;;;;1.25;0.95;;;;;;;;;;5441225;25;58122;-70
2024/04/09 09:44:37;;;;;;;1.13;1.00;;;;;;;;;;5435717;25;57574;-70
2024/04/09 09:47:03;;;;;;;0.77;0.70;;;;;;;;;;5433461;25;56531;-70
2024/04/09 09:49:29;;;;;;;0.60;0.60;;;;;;;;;;5430378;25;58266;-70
2024/04/09 09:51:55;;;;;;;0.93;0.80;;;;;;;;;;5434570;25;56542;-70
2024/04/09 09:54:21;;;;;;;0.82;0.60;;;;;;;;;;5434596;25;58641;-70
2024/04/09 09:56:49;;;;;;;0.70;0.70;;;;;;;;;;5434359;25;57302;-70
2024/04/09 09:59:14;;;;;;;;;;;;;;;;;;5432439;25;56754;-70
2024/04/09 10:01:39;;;;;;;1.33;0.70;;;;;;;;;;5429351;25;57170;-70
2024/04/09 10:04:05;;;;;;;1.13;0.83;;;;;;;;;;5435737;25;57676;-70
2024/04/09 10:06:30;;;;;;;0.60;0.60;;;;;;;;;;5426317;25;56393;-70
2024/04/09 10:08:55;;;;;;;2.00;0.50;;;;;;;;;;5427275;25;56937;-71
2024/04/09 10:11:21;;;;;;;0.50;0.50;;;;;;;;;;5429397;25;56417;-71
2024/04/09 10:13:51;;;;;;;0.88;0.60;;;;;;;;;;5434710;25;56474;-70
2024/04/09 10:16:17;;;;;;;0.73;0.68;;;;;;;;;;5429021;25;57765;-72
2024/04/09 10:18:45;;;;;;;1.20;0.77;;;;;;;;;;5436314;25;56334;-72
2024/04/09 10:21:13;;;;;;;1.33;1.23;;;;;;;;;;5436540;25;58354;-72
2024/04/09 10:23:39;;;;;;;0.68;0.60;;;;;;;;;;5427726;25;58642;-72
2024/04/09 10:26:08;;;;;;;0.52;0.43;;;;;;;;;;5435942;25;56291;-72
2024/04/09 10:28:37;;;;;;;0.80;0.65;;;;;;;;;;5434963;25;56740;-72
2024/04/09 10:31:08;;;;;;;0.88;0.88;;;;;;;;;;5431500;25;57688;-72
2024/04/09 10:33:34;;;;;;;0.93;0.93;;;;;;;;;;5428537;25;56424;-72
2024/04/09 10:36:03;;;;;;;0.70;0.70;;;;;;;;;;5435176;25;57128;-72
2024/04/09 10:38:29;;;;;;;1.23;0.90;;;;;;;;;;5431711;25;56602;-73
2024/04/09 10:40:55;;;;;;;1.20;0.75;;;;;;;;;;5433091;25;57688;-72
2024/04/09 10:43:20;;;;;;;1.08;1.00;;;;;;;;;;5436330;25;58030;-72
2024/04/09 10:45:45;;;;;;;0.50;0.50;;;;;;;;;;5434232;25;56834;-72
2024/04/09 10:48:11;;;;;;;0.70;0.70;;;;;;;;;;5432371;25;57194;-72
2024/04/09 10:50:36;;;;;;;1.15;0.57;;;;;;;;;;5435212;25;58678;-72
2024/04/09 10:53:02;;;;;;;0.70;0.70;;;;;;;;;;5435133;25;56613;-72
2024/04/09 10:55:28;;;;;;;0.55;0.55;;;;;;;;;;5439304;25;57292;-72
2024/04/09 10:57:53;;;;;;;1.05;0.90;;;;;;;;;;5431379;25;57647;-72
2024/04/09 11:00:19;;;;;;;0.50;0.50;;;;;;;;;;5435953;25;57210;-72
2024/04/09 11:02:45;;;;;;;0.70;0.70;;;;;;;;;;5432752;25;58721;-72
2024/04/09 11:05:11;;;;;;;0.88;0.88;;;;;;;;;;5435968;25;56807;-72
2024/04/09 11:07:37;;;;;;;0.68;0.68;;;;;;;;;;5426481;25;57550;-72
2024/04/09 11:10:06;;;;;;;1.05;0.57;;;;;;;;;;5428510;25;57651;-72
2024/04/09 11:12:32;;;;;;;0.68;0.65;;;;;;;;;;5432655;25;56253;-72
2024/04/09 11:14:58;;;;;;;0.63;0.63;;;;;;;;;;5437696;25;57002;-71
2024/04/09 11:17:24;;;;;;;0.82;0.70;;;;;;;;;;5435708;25;56793;-70
2024/04/09 11:19:49;;;;;;;0.40;0.40;;;;;;;;;;5437080;25;56731;-70
2024/04/09 11:22:15;;;;;;;0.40;0.40;;;;;;;;;;5428806;25;57634;-70
2024/04/09 11:24:40;;;;;;;0.90;0.60;;;;;;;;;;5433264;25;56594;-72
2024/04/09 11:27:07;;;;;;;0.40;0.40;;;;;;;;;;5431066;25;58179;-73
2024/04/09 11:29:33;;;;;;;0.55;0.55;;;;;;;;;;5432280;25;58015;-72
2024/04/09 11:32:02;;;;;;;0.40;0.40;;;;;;;;;;5429804;25;56473;-72
2024/04/09 11:34:30;;;;;;;0.43;0.43;;;;;;;;;;5430662;25;56202;-73
2024/04/09 11:36:56;;;;;;;0.30;0.30;;;;;;;;;;5425252;25;58249;-72
2024/04/09 11:39:22;;;;;;;0.60;0.43;;;;;;;;;;5432608;25;56432;-73
2024/04/09 11:41:48;;;;;;;0.57;0.57;;;;;;;;;;5428701;25;56463;-72
2024/04/09 11:44:20;;;;;;;0.20;0.20;;;;;;;;;;5428084;25;56300;-72
2024/04/09 11:46:45;;;;;;;0.52;0.52;;;;;;;;;;5436595;25;57243;-72
2024/04/09 11:49:10;;;;;;;0.40;0.40;;;;;;;;;;5420555;25;58520;-72
2024/04/09 11:51:35;;;;;;;0.40;0.40;;;;;;;;;;5431078;25;58140;-72
2024/04/09 11:54:01;;;;;;;0.40;0.40;;;;;;;;;;5435156;25;57239;-72
2024/04/09 11:56:26;;;;;;;0.60;0.60;;;;;;;;;;5428456;25;57851;-72
2024/04/09 11:58:51;;;;;;;0.20;0.20;;;;;;;;;;5423849;25;56216;-72
2024/04/09 12:01:16;;;;;;;0.40;0.40;;;;;;;;;;5432021;25;57103;-72
2024/04/09 12:03:41;;;;;;;0.33;0.33;;;;;;;;;;5424839;25;56098;-73
2024/04/09 12:06:06;;;;;;;0.40;0.40;;;;;;;;;;5434431;25;57147;-73
2024/04/09 12:08:32;;;;;;;0.40;0.40;;;;;;;;;;5432655;25;57744;-72
2024/04/09 12:10:57;;;;;;;0.30;0.30;;;;;;;;;;5424392;25;56963;-72
2024/04/09 12:13:22;;;;;;;0.65;0.30;;;;;;;;;;5430231;25;58304;-72
2024/04/09 12:15:48;;;;;;;0.57;0.57;;;;;;;;;;5424834;25;56599;-73
2024/04/09 12:18:13;;;;;;;0.40;0.40;;;;;;;;;;5435117;25;56465;-73
2024/04/09 12:20:38;;;;;;;0.50;0.50;;;;;;;;;;5438700;25;56448;-73
2024/04/09 12:23:03;;;;;;;0.43;0.43;;;;;;;;;;5428691;25;58083;-72
2024/04/09 12:25:29;;;;;;;0.28;0.28;;;;;;;;;;5432267;25;57197;-72
2024/04/09 12:27:54;;;;;;;0.55;0.52;;;;;;;;;;5426963;25;57872;-72
2024/04/09 12:30:19;;;;;;;0.40;0.40;;;;;;;;;;5435361;25;56617;-72
2024/04/09 12:32:44;;;;;;;0.53;0.43;;;;;;;;;;5426475;25;56934;-72
2024/04/09 12:35:10;;;;;;;0.40;0.40;;;;;;;;;;5430922;25;56827;-72
2024/04/09 12:37:35;;;;;;;0.30;0.30;;;;;;;;;;5432942;25;56419;-71
2024/04/09 12:40:00;;;;;;;0.20;0.20;;;;;;;;;;5429158;25;59234;-72
2024/04/09 12:42:26;;;;;;;0.20;0.20;;;;;;;;;;5433174;25;57640;-72
2024/04/09 12:44:52;;;;;;;0.32;0.32;;;;;;;;;;5430610;25;56444;-72
2024/04/09 12:47:19;;;;;;;0.30;0.30;;;;;;;;;;5432662;25;58082;-72
2024/04/09 12:49:44;;;;;;;0.30;0.30;;;;;;;;;;5428651;25;56549;-77
2024/04/09 12:52:10;;;;;;;0.75;0.75;;;;;;;;;;5432475;25;58178;-75
2024/04/09 12:54:35;;;;;;;1.27;0.50;;;;;;;;;;5437337;25;57936;-77
2024/04/09 12:57:01;;;;;;;0.50;0.40;;;;;;;;;;5440061;25;56722;-77
2024/04/09 12:59:35;;;;;;;0.52;0.35;;;;;;;;;;5440584;25;58003;-78
2024/04/09 13:02:01;;;;;;;0.47;0.32;;;;;;;;;;5440270;25;58046;-77
2024/04/09 13:04:28;;;;;;;0.20;0.20;;;;;;;;;;5442848;25;56797;-77
2024/04/09 13:06:53;;;;;;;0.43;0.40;;;;;;;;;;5440177;25;57967;-78
2024/04/09 13:09:18;;;;;;;1.00;0.87;;;;;;;;;;5441457;25;56906;-76
2024/04/09 13:11:43;;;;;;;0.37;0.37;;;;;;;;;;5438676;25;58274;-76
2024/04/09 13:14:08;;;;;;;2.00;0.40;;;;;;;;;;5440706;25;56962;-77
2024/04/09 13:16:38;;;;;;;1.07;0.60;;;;;;;;;;5440588;25;56934;-76
2024/04/09 13:19:04;;;;;;;2.47;0.50;;;;;;;;;;5441286;25;58325;-76
2024/04/09 13:21:29;;;;;;;1.70;0.97;;;;;;;;;;5439984;25;56858;-77
2024/04/09 13:23:54;;;;;;;0.97;0.40;;;;;;;;;;5441608;25;56921;-76
2024/04/09 13:26:20;;;;;;;2.53;0.95;;;;;;;;;;5442130;25;58020;-76
2024/04/09 13:28:45;;;;;;;1.33;0.68;;;;;;;;;;5438523;25;57831;-76
2024/04/09 13:31:10;;;;;;;4.75;0.70;;;;;;;;;;5440337;25;59007;-76
2024/04/09 13:33:36;;;;;;;4.45;0.70;;;;;;;;;;5438893;25;56834;-76
2024/04/09 13:36:01;;;;;;;1.13;0.68;;;;;;;;;;5440581;25;56720;-74
2024/04/09 13:38:26;;;;;;;2.07;0.67;;;;;;;;;;5440133;25;58360;-74
2024/04/09 13:40:51;;;;;;;0.30;0.30;;;;;;;;;;5439576;25;57825;-74
2024/04/09 13:43:17;;;;;;;2.80;0.50;;;;;;;;;;5441130;25;56726;-74
2024/04/09 13:45:42;;;;;;;0.63;0.52;;;;;;;;;;5438109;25;58894;-74
2024/04/09 13:48:07;;;;;;;0.30;0.25;;;;;;;;;;5438601;25;57654;-74
2024/04/09 13:50:33;;;;;;;1.17;1.02;;;;;;;;;;5439857;25;56879;-72
2024/04/09 13:52:59;;;;;;;1.02;0.75;;;;;;;;;;5439176;25;59654;-74
2024/04/09 13:55:24;;;;;;;0.93;0.40;;;;;;;;;;5440723;25;57120;-74
2024/04/09 13:57:49;;;;;;;0.60;0.27;;;;;;;;;;5441504;25;59052;-74
2024/04/09 14:00:14;;;;;;;2.80;0.40;;;;;;;;;;5439075;25;57835;-75
2024/04/09 14:02:39;;;;;;;0.90;0.37;;;;;;;;;;5437911;25;56633;-75
2024/04/09 14:05:05;;;;;;;0.73;0.40;;;;;;;;;;5440264;25;59318;-74
2024/04/09 14:07:30;;;;;;;0.75;0.35;;;;;;;;;;5437583;25;57106;-74
2024/04/09 14:09:56;;;;;;;0.40;0.40;;;;;;;;;;5443011;25;56785;-74
2024/04/09 14:12:22;;;;;;;0.50;0.20;;;;;;;;;;5439706;25;57922;-74
2024/04/09 14:14:47;;;;;;;1.45;0.90;;;;;;;;;;5437703;25;56965;-74
2024/04/09 14:17:12;;;;;;;0.70;0.60;;;;;;;;;;5436736;25;58544;-74
2024/04/09 14:19:37;;;;;;;1.23;0.53;;;;;;;;;;5439294;25;57639;-74
2024/04/09 14:22:03;;;;;;;0.57;0.30;;;;;;;;;;5439993;25;56815;-74
2024/04/09 14:24:28;;;;;;;0.30;0.27;;;;;;;;;;5440280;25;58341;-74
2024/04/09 14:26:53;;;;;;;0.53;0.43;;;;;;;;;;5440228;25;58918;-74
2024/04/09 14:29:18;;;;;;;0.88;0.30;;;;;;;;;;5437754;25;56786;-74
2024/04/09 14:31:43;;;;;;;0.50;0.40;;;;;;;;;;5441103;25;57504;-74
2024/04/09 14:34:09;;;;;;;0.75;0.28;;;;;;;;;;5440961;25;56781;-75